CCA3411 ZSHC-OTHH
Flight info
| Callsign | CCA3411 |
|---|---|
| Flight time | N/A |
| Altitude | 38100 |
| Route | NIV92D NIVIK W135 LUPVI R343 MIDOX/K0913S1100 R343 WHA A581 SGM A599 LINSO/N0502F360 A599 CTG/N0495F380 B465 CEA A791 BPL L639 MILUP/N0489F400 L639 RASKI L301 RAGMA N571 MENSA/N0511F340 N571 IVOXI P699 EGTAG DCT RORON M430 TOSNA TOSNA2L |
| Aircraft | A35K/H-SDE2E3GHIJ3J4J5LM1ORWXY/LB1D1 |
Departure
| Time | 2026-05-06 04:30 |
|---|---|
| Airport | Hangzhou Xiaoshan International Airport (ZSHC) |
Arrival
| Time | N/A |
|---|---|
| Airport | Hamad International Airport (OTHH) |
| Time | Latitude | Longitude | Altitude | Speed | Heading |
|---|---|---|---|---|---|
| 2026-05-06 04:12 | 30.24130 | 120.43207 | 60 ft | 0 kts | 253° |
| 2026-05-06 04:17 | 30.24131 | 120.43211 | 60 ft | 2 kts | 253° |
| 2026-05-06 04:17 | 30.24135 | 120.43231 | 53 ft | 3 kts | 260° |
| 2026-05-06 04:17 | 30.24138 | 120.43254 | 57 ft | 3 kts | 268° |
| 2026-05-06 04:17 | 30.24138 | 120.43277 | 53 ft | 3 kts | 279° |
| 2026-05-06 04:18 | 30.24133 | 120.43299 | 52 ft | 3 kts | 300° |
| 2026-05-06 04:18 | 30.24122 | 120.43314 | 52 ft | 2 kts | 332° |
| 2026-05-06 04:18 | 30.24119 | 120.43316 | 52 ft | 0 kts | 336° |
| 2026-05-06 04:18 | 30.24120 | 120.43316 | 52 ft | 0 kts | 336° |
| 2026-05-06 04:20 | 30.24121 | 120.43316 | 52 ft | 1 kts | 335° |
| 2026-05-06 04:21 | 30.24140 | 120.43307 | 52 ft | 4 kts | 346° |
| 2026-05-06 04:21 | 30.24169 | 120.43310 | 52 ft | 4 kts | 27° |
| 2026-05-06 04:21 | 30.24194 | 120.43341 | 54 ft | 7 kts | 54° |
| 2026-05-06 04:21 | 30.24227 | 120.43405 | 52 ft | 11 kts | 62° |
| 2026-05-06 04:22 | 30.24278 | 120.43471 | 55 ft | 10 kts | 9° |
| 2026-05-06 04:22 | 30.24355 | 120.43446 | 52 ft | 13 kts | 336° |
| 2026-05-06 04:22 | 30.24443 | 120.43394 | 54 ft | 16 kts | 333° |
| 2026-05-06 04:23 | 30.24604 | 120.43270 | 52 ft | 4 kts | 258° |
| 2026-05-06 04:23 | 30.24587 | 120.43223 | 52 ft | 8 kts | 245° |
| 2026-05-06 04:23 | 30.24556 | 120.43152 | 54 ft | 12 kts | 242° |
| 2026-05-06 04:23 | 30.24514 | 120.43058 | 52 ft | 15 kts | 242° |
| 2026-05-06 04:24 | 30.24461 | 120.42939 | 53 ft | 18 kts | 244° |
| 2026-05-06 04:24 | 30.24402 | 120.42800 | 52 ft | 20 kts | 241° |
| 2026-05-06 04:24 | 30.24331 | 120.42648 | 53 ft | 23 kts | 242° |
| 2026-05-06 04:24 | 30.24258 | 120.42481 | 52 ft | 23 kts | 241° |
| 2026-05-06 04:25 | 30.24179 | 120.42307 | 52 ft | 25 kts | 242° |
| 2026-05-06 04:25 | 30.24099 | 120.42118 | 53 ft | 26 kts | 243° |
| 2026-05-06 04:25 | 30.24010 | 120.41928 | 52 ft | 28 kts | 241° |
| 2026-05-06 04:25 | 30.23920 | 120.41726 | 54 ft | 29 kts | 242° |
| 2026-05-06 04:26 | 30.23825 | 120.41516 | 52 ft | 30 kts | 242° |
| 2026-05-06 04:26 | 30.23727 | 120.41296 | 53 ft | 31 kts | 245° |
| 2026-05-06 04:26 | 30.23637 | 120.41078 | 52 ft | 20 kts | 243° |
| 2026-05-06 04:26 | 30.23625 | 120.40972 | 52 ft | 14 kts | 302° |
| 2026-05-06 04:27 | 30.23676 | 120.40927 | 55 ft | 0 kts | 330° |
| 2026-05-06 04:28 | 30.23679 | 120.40925 | 57 ft | 2 kts | 330° |
| 2026-05-06 04:28 | 30.23699 | 120.40912 | 52 ft | 5 kts | 331° |
| 2026-05-06 04:28 | 30.23743 | 120.40885 | 53 ft | 9 kts | 332° |
| 2026-05-06 04:29 | 30.23807 | 120.40855 | 58 ft | 8 kts | 1° |
| 2026-05-06 04:29 | 30.23836 | 120.40879 | 56 ft | 5 kts | 38° |
| 2026-05-06 04:29 | 30.23854 | 120.40914 | 54 ft | 13 kts | 60° |
| 2026-05-06 04:29 | 30.24033 | 120.41313 | 55 ft | 105 kts | 63° |
| 2026-05-06 04:30 | 30.24510 | 120.42369 | 123 ft | 184 kts | 61° |
| 2026-05-06 04:30 | 30.25147 | 120.43793 | 887 ft | 209 kts | 63° |
| 2026-05-06 04:30 | 30.25838 | 120.45380 | 1777 ft | 241 kts | 64° |
| 2026-05-06 04:30 | 30.26641 | 120.47213 | 2777 ft | 265 kts | 63° |
| 2026-05-06 04:31 | 30.27443 | 120.49019 | 4069 ft | 247 kts | 64° |
| 2026-05-06 04:31 | 30.28220 | 120.50746 | 5154 ft | 238 kts | 62° |
| 2026-05-06 04:31 | 30.29264 | 120.52214 | 6004 ft | 238 kts | 37° |
| 2026-05-06 04:31 | 30.30783 | 120.52937 | 6763 ft | 240 kts | 5° |
| 2026-05-06 04:32 | 30.32412 | 120.52655 | 7407 ft | 238 kts | 334° |
| 2026-05-06 04:32 | 30.33685 | 120.51485 | 7775 ft | 235 kts | 304° |
| 2026-05-06 04:32 | 30.34334 | 120.49835 | 7857 ft | 234 kts | 284° |
| 2026-05-06 04:32 | 30.34632 | 120.47982 | 7863 ft | 235 kts | 271° |
| 2026-05-06 04:33 | 30.34321 | 120.46143 | 7867 ft | 233 kts | 246° |
| 2026-05-06 04:33 | 30.33581 | 120.44398 | 7860 ft | 250 kts | 242° |
| 2026-05-06 04:33 | 30.32750 | 120.42595 | 7859 ft | 256 kts | 242° |
| 2026-05-06 04:33 | 30.31914 | 120.40764 | 7857 ft | 258 kts | 242° |
| 2026-05-06 04:34 | 30.31084 | 120.38926 | 7869 ft | 258 kts | 242° |
| 2026-05-06 04:34 | 30.30262 | 120.37090 | 7866 ft | 257 kts | 242° |
| 2026-05-06 04:34 | 30.29444 | 120.35256 | 7860 ft | 256 kts | 242° |
| 2026-05-06 04:34 | 30.28628 | 120.33424 | 7861 ft | 256 kts | 242° |
| 2026-05-06 04:35 | 30.27812 | 120.31590 | 7860 ft | 257 kts | 242° |
| 2026-05-06 04:35 | 30.27013 | 120.29742 | 7856 ft | 257 kts | 246° |
| 2026-05-06 04:35 | 30.26686 | 120.27724 | 7859 ft | 258 kts | 276° |
| 2026-05-06 04:35 | 30.27385 | 120.25840 | 7865 ft | 268 kts | 310° |
| 2026-05-06 04:36 | 30.28967 | 120.24521 | 7858 ft | 282 kts | 331° |
| 2026-05-06 04:36 | 30.30707 | 120.23539 | 7851 ft | 286 kts | 333° |
| 2026-05-06 04:36 | 30.32483 | 120.22554 | 7854 ft | 287 kts | 333° |
| 2026-05-06 04:36 | 30.34304 | 120.21571 | 7851 ft | 287 kts | 336° |
| 2026-05-06 04:37 | 30.36140 | 120.20690 | 7853 ft | 287 kts | 336° |
| 2026-05-06 04:37 | 30.37997 | 120.19800 | 7848 ft | 287 kts | 336° |
| 2026-05-06 04:37 | 30.39838 | 120.18901 | 7848 ft | 287 kts | 335° |
| 2026-05-06 04:37 | 30.41680 | 120.17994 | 7846 ft | 287 kts | 336° |
| 2026-05-06 04:38 | 30.43516 | 120.17084 | 7853 ft | 287 kts | 335° |
| 2026-05-06 04:38 | 30.45343 | 120.16168 | 7842 ft | 286 kts | 335° |
| 2026-05-06 04:38 | 30.47174 | 120.15249 | 7841 ft | 286 kts | 335° |
| 2026-05-06 04:38 | 30.48927 | 120.14166 | 7854 ft | 284 kts | 324° |
| 2026-05-06 04:39 | 30.50541 | 120.12844 | 8116 ft | 286 kts | 322° |
| 2026-05-06 04:39 | 30.52137 | 120.11491 | 8835 ft | 287 kts | 322° |
| 2026-05-06 04:39 | 30.53744 | 120.10128 | 9896 ft | 285 kts | 322° |
| 2026-05-06 04:39 | 30.55365 | 120.08759 | 10557 ft | 297 kts | 322° |
| 2026-05-06 04:40 | 30.57090 | 120.07299 | 10895 ft | 318 kts | 322° |
| 2026-05-06 04:40 | 30.58940 | 120.05735 | 11245 ft | 338 kts | 322° |
| 2026-05-06 04:40 | 30.60894 | 120.04082 | 11574 ft | 357 kts | 322° |
| 2026-05-06 04:40 | 30.62941 | 120.02353 | 11996 ft | 370 kts | 322° |
| 2026-05-06 04:41 | 30.65042 | 120.00582 | 12580 ft | 377 kts | 323° |
| 2026-05-06 04:41 | 30.67177 | 119.98779 | 13246 ft | 380 kts | 323° |
| 2026-05-06 04:41 | 30.69322 | 119.96960 | 13885 ft | 385 kts | 323° |
| 2026-05-06 04:41 | 30.71504 | 119.95116 | 14463 ft | 389 kts | 323° |
| 2026-05-06 04:42 | 30.73698 | 119.93262 | 15067 ft | 392 kts | 323° |
| 2026-05-06 04:42 | 30.75904 | 119.91398 | 15631 ft | 395 kts | 324° |
| 2026-05-06 04:42 | 30.78167 | 119.89537 | 16253 ft | 397 kts | 324° |
| 2026-05-06 04:42 | 30.80445 | 119.87669 | 16830 ft | 400 kts | 324° |
| 2026-05-06 04:43 | 30.82712 | 119.85788 | 17326 ft | 405 kts | 324° |
| 2026-05-06 04:43 | 30.84976 | 119.83877 | 17846 ft | 408 kts | 323° |
| 2026-05-06 04:43 | 30.87270 | 119.81919 | 18385 ft | 411 kts | 323° |
| 2026-05-06 04:43 | 30.89587 | 119.79931 | 18780 ft | 416 kts | 323° |
| 2026-05-06 04:44 | 30.91919 | 119.77919 | 19282 ft | 417 kts | 323° |
| 2026-05-06 04:44 | 30.94254 | 119.75902 | 19818 ft | 419 kts | 323° |
| 2026-05-06 04:44 | 30.96599 | 119.73873 | 20359 ft | 420 kts | 323° |
| 2026-05-06 04:44 | 30.98947 | 119.71843 | 20890 ft | 422 kts | 323° |
| 2026-05-06 04:45 | 31.01320 | 119.69794 | 21421 ft | 424 kts | 323° |
| 2026-05-06 04:45 | 31.03696 | 119.67742 | 21937 ft | 426 kts | 323° |
| 2026-05-06 04:45 | 31.06082 | 119.65678 | 22482 ft | 428 kts | 323° |
| 2026-05-06 04:45 | 31.08481 | 119.63601 | 23031 ft | 430 kts | 323° |
| 2026-05-06 04:46 | 31.10899 | 119.61506 | 23557 ft | 432 kts | 323° |
| 2026-05-06 04:46 | 31.13289 | 119.59434 | 23975 ft | 435 kts | 323° |
| 2026-05-06 04:46 | 31.15724 | 119.57322 | 24440 ft | 437 kts | 323° |
| 2026-05-06 04:46 | 31.18175 | 119.55194 | 24946 ft | 439 kts | 323° |
| 2026-05-06 04:47 | 31.20630 | 119.53062 | 25450 ft | 441 kts | 323° |
| 2026-05-06 04:47 | 31.23105 | 119.50918 | 25930 ft | 444 kts | 323° |
| 2026-05-06 04:47 | 31.25592 | 119.48759 | 26446 ft | 446 kts | 323° |
| 2026-05-06 04:47 | 31.28086 | 119.46593 | 26968 ft | 448 kts | 323° |
| 2026-05-06 04:48 | 31.30591 | 119.44415 | 27477 ft | 451 kts | 323° |
| 2026-05-06 04:48 | 31.33113 | 119.42222 | 27987 ft | 453 kts | 323° |
| 2026-05-06 04:48 | 31.35648 | 119.40017 | 28494 ft | 456 kts | 323° |
| 2026-05-06 04:48 | 31.38203 | 119.37793 | 28980 ft | 458 kts | 323° |
| 2026-05-06 04:49 | 31.40764 | 119.35564 | 29463 ft | 460 kts | 323° |
| 2026-05-06 04:49 | 31.43349 | 119.33311 | 29900 ft | 463 kts | 323° |
| 2026-05-06 04:49 | 31.45939 | 119.31050 | 30271 ft | 466 kts | 323° |
| 2026-05-06 04:49 | 31.48511 | 119.28804 | 30624 ft | 467 kts | 323° |
| 2026-05-06 04:50 | 31.51112 | 119.26530 | 31145 ft | 465 kts | 323° |
| 2026-05-06 04:50 | 31.53687 | 119.24281 | 31738 ft | 461 kts | 322° |
| 2026-05-06 04:50 | 31.56267 | 119.22036 | 32234 ft | 459 kts | 322° |
| 2026-05-06 04:50 | 31.58796 | 119.19765 | 32695 ft | 457 kts | 319° |
| 2026-05-06 04:51 | 31.61039 | 119.17156 | 33164 ft | 453 kts | 310° |
| 2026-05-06 04:51 | 31.62859 | 119.14176 | 33693 ft | 448 kts | 301° |
| 2026-05-06 04:51 | 31.64193 | 119.10884 | 34165 ft | 445 kts | 292° |
| 2026-05-06 04:51 | 31.65001 | 119.07375 | 34517 ft | 446 kts | 283° |
| 2026-05-06 04:52 | 31.65433 | 119.03779 | 34867 ft | 446 kts | 279° |
| 2026-05-06 04:52 | 31.65704 | 119.00151 | 35185 ft | 446 kts | 278° |
| 2026-05-06 04:52 | 31.65938 | 118.96519 | 35495 ft | 446 kts | 278° |
| 2026-05-06 04:52 | 31.66174 | 118.92890 | 35760 ft | 446 kts | 278° |
| 2026-05-06 04:53 | 31.66438 | 118.89255 | 35945 ft | 448 kts | 279° |
| 2026-05-06 04:53 | 31.66750 | 118.85598 | 36059 ft | 452 kts | 280° |
| 2026-05-06 04:53 | 31.67130 | 118.81925 | 36149 ft | 455 kts | 281° |
| 2026-05-06 04:54 | 31.67707 | 118.77361 | 36280 ft | 458 kts | 283° |